Time;durP1;ratioP1;P1;durP2;ratioP2;P2;SDS_P1;SDS_P2;PMS_P1;PMS_P2;Temp;Humidity;BMP_temperature;BMP_pressure;BME280_temperature;BME280_humidity;BME280_pressure;Samples;Min_cycle;Max_cycle;Signal;HPM_P1;HPM_P2
2023/01/22 00:02:51;;;;;;;27.65;12.32;;;;;;;;;;10425824;28;20120;-77
2023/01/22 00:07:51;;;;;;;24.70;11.65;;;;;;;;;;10426096;28;20116;-78
2023/01/22 00:12:51;;;;;;;17.23;8.90;;;;;;;;;;10425105;28;20036;-79
2023/01/22 00:17:52;;;;;;;15.10;7.85;;;;;;;;;;10425186;28;20021;-75
2023/01/22 00:22:52;;;;;;;20.05;11.02;;;;;;;;;;10408270;28;20020;-77
2023/01/22 00:27:53;;;;;;;20.02;10.38;;;;;;;;;;10423871;28;20119;-72
2023/01/22 00:32:53;;;;;;;18.63;9.83;;;;;;;;;;10424943;28;20017;-76
2023/01/22 00:37:53;;;;;;;23.20;10.65;;;;;;;;;;10423497;28;20078;-74
2023/01/22 00:42:53;;;;;;;20.50;11.15;;;;;;;;;;10425438;28;20491;-76
2023/01/22 00:47:54;;;;;;;19.83;10.60;;;;;;;;;;10421991;28;20021;-76
2023/01/22 00:52:54;;;;;;;18.55;9.10;;;;;;;;;;10422106;28;20125;-76
2023/01/22 00:57:54;;;;;;;14.13;7.80;;;;;;;;;;10421864;28;20024;-77
2023/01/22 01:08:13;;;;;;;16.45;8.73;;;;;;;;;;10443219;28;20026;-75
2023/01/22 01:13:14;;;;;;;12.65;6.50;;;;;;;;;;10425694;28;20025;-76
2023/01/22 01:18:14;;;;;;;16.73;8.18;;;;;;;;;;10429302;28;20035;-77
2023/01/22 01:23:14;;;;;;;16.98;8.52;;;;;;;;;;10441980;28;20013;-76
2023/01/22 01:28:15;;;;;;;14.23;6.97;;;;;;;;;;10412807;28;20445;-71
2023/01/22 01:33:15;;;;;;;11.35;6.95;;;;;;;;;;10421156;28;20021;-74
2023/01/22 01:38:15;;;;;;;9.98;5.10;;;;;;;;;;10423890;28;20029;-73
2023/01/22 01:43:16;;;;;;;11.23;4.90;;;;;;;;;;10431691;28;20030;-73
2023/01/22 01:48:25;;;;;;;8.70;4.93;;;;;;;;;;10420645;28;20028;-77
2023/01/22 01:53:25;;;;;;;6.55;4.68;;;;;;;;;;10431201;28;20268;-75
2023/01/22 01:58:27;;;;;;;11.18;5.28;;;;;;;;;;10428629;28;20017;-73
2023/01/22 02:03:28;;;;;;;11.20;5.97;;;;;;;;;;10426142;28;20060;-70
2023/01/22 02:08:29;;;;;;;11.02;5.30;;;;;;;;;;10426894;28;20021;-76
2023/01/22 02:13:31;;;;;;;12.97;5.40;;;;;;;;;;10411281;28;20021;-74
2023/01/22 02:18:31;;;;;;;12.10;5.35;;;;;;;;;;10410194;28;20282;-70
2023/01/22 02:23:31;;;;;;;13.70;5.55;;;;;;;;;;10446559;28;20487;-71
2023/01/22 02:28:32;;;;;;;12.88;6.43;;;;;;;;;;10431534;28;20483;-77
2023/01/22 02:33:32;;;;;;;11.57;5.90;;;;;;;;;;10428924;28;20108;-77
2023/01/22 02:38:32;;;;;;;12.80;7.38;;;;;;;;;;10428431;28;20024;-76
2023/01/22 02:43:32;;;;;;;13.00;7.82;;;;;;;;;;10411636;28;20108;-75
2023/01/22 02:48:33;;;;;;;13.23;7.30;;;;;;;;;;10428373;28;20029;-75
2023/01/22 02:53:33;;;;;;;11.45;6.32;;;;;;;;;;10427042;28;20127;-76
2023/01/22 02:58:34;;;;;;;13.05;5.93;;;;;;;;;;10428404;28;20025;-75
2023/01/22 03:03:34;;;;;;;14.77;6.00;;;;;;;;;;10428232;28;20569;-78
2023/01/22 03:08:34;;;;;;;9.27;5.30;;;;;;;;;;10445491;28;20029;-70
2023/01/22 03:24:12;;;;;;;10.13;4.43;;;;;;;;;;10445579;28;20399;-76
2023/01/22 03:29:13;;;;;;;7.25;3.80;;;;;;;;;;10422735;28;20025;-72
2023/01/22 03:34:14;;;;;;;8.20;4.03;;;;;;;;;;10386471;28;20028;-76
2023/01/22 03:39:14;;;;;;;6.10;3.25;;;;;;;;;;10444633;28;20021;-76
2023/01/22 03:44:15;;;;;;;6.88;3.38;;;;;;;;;;10426216;28;20031;-76
2023/01/22 03:49:15;;;;;;;6.25;3.50;;;;;;;;;;10426458;28;20025;-74
2023/01/22 03:54:15;;;;;;;8.60;3.50;;;;;;;;;;10409681;28;20155;-77
2023/01/22 03:59:16;;;;;;;7.22;3.63;;;;;;;;;;10425110;28;20029;-75
2023/01/22 04:04:16;;;;;;;11.02;5.05;;;;;;;;;;10424996;28;20048;-76
2023/01/22 04:09:16;;;;;;;10.50;4.80;;;;;;;;;;10409124;28;20025;-76
2023/01/22 04:14:16;;;;;;;12.75;4.20;;;;;;;;;;10424987;28;20087;-75
2023/01/22 04:19:17;;;;;;;9.50;4.70;;;;;;;;;;10425073;28;20031;-73
2023/01/22 04:24:17;;;;;;;11.32;4.95;;;;;;;;;;10424718;28;20013;-75
2023/01/22 04:29:17;;;;;;;12.13;4.70;;;;;;;;;;10442984;28;20036;-77
2023/01/22 04:34:18;;;;;;;7.53;4.83;;;;;;;;;;10417886;28;20221;-74
2023/01/22 04:39:18;;;;;;;10.90;5.38;;;;;;;;;;10424798;28;20835;-75
2023/01/22 04:44:19;;;;;;;12.00;5.05;;;;;;;;;;10443798;28;20025;-73
2023/01/22 04:49:20;;;;;;;12.93;4.50;;;;;;;;;;10446701;28;20573;-73
2023/01/22 04:54:20;;;;;;;11.55;4.38;;;;;;;;;;10423899;28;20544;-73
2023/01/22 04:59:20;;;;;;;8.23;4.68;;;;;;;;;;10424725;28;20414;-78
2023/01/22 05:04:20;;;;;;;8.55;4.43;;;;;;;;;;10424397;28;20041;-72
2023/01/22 05:09:21;;;;;;;6.25;3.63;;;;;;;;;;10441271;28;20044;-76
2023/01/22 05:14:21;;;;;;;6.38;3.45;;;;;;;;;;10445483;28;20028;-76
2023/01/22 05:19:22;;;;;;;8.87;3.43;;;;;;;;;;10450066;28;20399;-74
2023/01/22 05:24:22;;;;;;;7.05;3.53;;;;;;;;;;10431673;28;20017;-73
2023/01/22 05:29:24;;;;;;;4.43;2.60;;;;;;;;;;10432108;28;20483;-78
2023/01/22 05:34:25;;;;;;;5.63;3.33;;;;;;;;;;10432015;28;20263;-76
2023/01/22 05:39:25;;;;;;;6.43;3.80;;;;;;;;;;10430969;28;20021;-70
2023/01/22 05:44:26;;;;;;;10.50;4.32;;;;;;;;;;10430878;28;20013;-75
2023/01/22 05:49:26;;;;;;;8.57;4.13;;;;;;;;;;10430900;28;20388;-76
2023/01/22 05:54:26;;;;;;;9.73;4.63;;;;;;;;;;10448662;28;20449;-77
2023/01/22 05:59:27;;;;;;;10.05;4.93;;;;;;;;;;10429956;28;20020;-76
2023/01/22 06:04:27;;;;;;;7.97;4.78;;;;;;;;;;10429537;28;20033;-74
2023/01/22 06:09:27;;;;;;;11.40;5.53;;;;;;;;;;10429922;28;20139;-75
2023/01/22 06:14:28;;;;;;;10.55;5.53;;;;;;;;;;10431590;28;20025;-75
2023/01/22 06:19:28;;;;;;;10.45;6.65;;;;;;;;;;10436341;28;20016;-78
2023/01/22 06:24:28;;;;;;;13.07;7.18;;;;;;;;;;10440896;28;20588;-79
2023/01/22 06:29:28;;;;;;;13.90;6.63;;;;;;;;;;10435977;28;20021;-73
2023/01/22 06:34:29;;;;;;;11.73;6.70;;;;;;;;;;10430718;28;20577;-77
2023/01/22 06:39:29;;;;;;;14.07;5.80;;;;;;;;;;10413558;28;20020;-76
2023/01/22 06:44:29;;;;;;;10.95;6.43;;;;;;;;;;10404807;28;20049;-77
2023/01/22 06:49:29;;;;;;;7.43;5.05;;;;;;;;;;10396961;28;20017;-73
2023/01/22 06:54:31;;;;;;;15.18;6.95;;;;;;;;;;10421220;28;20023;-77
2023/01/22 06:59:31;;;;;;;18.55;8.88;;;;;;;;;;10403386;28;20046;-79
2023/01/22 07:04:31;;;;;;;18.67;10.05;;;;;;;;;;10420144;28;20046;-76
2023/01/22 07:09:31;;;;;;;19.42;9.48;;;;;;;;;;10426702;28;20124;-75
2023/01/22 07:14:32;;;;;;;21.60;9.85;;;;;;;;;;10419327;28;20032;-72
2023/01/22 07:19:32;;;;;;;25.67;13.03;;;;;;;;;;10424595;28;20013;-72
2023/01/22 07:24:32;;;;;;;28.97;12.83;;;;;;;;;;10407661;28;20075;-76
2023/01/22 07:29:33;;;;;;;21.30;12.02;;;;;;;;;;10422490;28;20017;-77
2023/01/22 07:34:33;;;;;;;24.93;13.03;;;;;;;;;;10433612;28;20032;-79
2023/01/22 07:39:34;;;;;;;24.08;13.35;;;;;;;;;;10422687;28;20025;-76
2023/01/22 07:44:35;;;;;;;24.25;12.38;;;;;;;;;;10422323;28;20019;-75
2023/01/22 07:49:36;;;;;;;27.33;12.95;;;;;;;;;;10433629;28;20774;-75
2023/01/22 07:54:36;;;;;;;23.45;11.00;;;;;;;;;;10406110;28;20108;-78
2023/01/22 07:59:36;;;;;;;20.90;10.93;;;;;;;;;;10421002;28;20032;-76
2023/01/22 08:04:36;;;;;;;23.50;11.63;;;;;;;;;;10425655;28;20128;-75
2023/01/22 08:09:37;;;;;;;23.47;11.70;;;;;;;;;;10421609;28;20031;-78
2023/01/22 08:14:37;;;;;;;18.83;10.68;;;;;;;;;;10427296;28;20028;-77
2023/01/22 08:19:37;;;;;;;28.42;11.43;;;;;;;;;;10438034;28;20024;-76
2023/01/22 08:24:37;;;;;;;21.17;10.43;;;;;;;;;;10418623;28;20032;-74
2023/01/22 08:29:38;;;;;;;18.33;10.00;;;;;;;;;;10420746;28;20036;-76
2023/01/22 08:34:38;;;;;;;24.42;12.07;;;;;;;;;;10417683;28;20151;-79
2023/01/22 08:39:38;;;;;;;27.73;15.55;;;;;;;;;;10418633;28;20032;-77
2023/01/22 08:44:38;;;;;;;43.20;21.17;;;;;;;;;;10432186;28;20021;-82
2023/01/22 08:49:39;;;;;;;45.28;22.20;;;;;;;;;;10426129;28;20040;-81
2023/01/22 08:54:39;;;;;;;55.73;26.23;;;;;;;;;;10447542;28;20029;-76
2023/01/22 08:59:39;;;;;;;50.55;25.08;;;;;;;;;;10445792;28;20296;-79
2023/01/22 09:04:40;;;;;;;49.25;24.58;;;;;;;;;;10448201;28;20048;-77
2023/01/22 09:09:42;;;;;;;41.60;22.50;;;;;;;;;;10426617;28;20142;-76
2023/01/22 09:14:42;;;;;;;37.13;20.33;;;;;;;;;;10423944;28;20167;-76
2023/01/22 09:19:42;;;;;;;37.47;18.08;;;;;;;;;;10402938;28;20033;-77
2023/01/22 09:24:42;;;;;;;38.03;17.33;;;;;;;;;;10420352;28;20035;-72
2023/01/22 09:29:43;;;;;;;35.63;16.67;;;;;;;;;;10437274;28;20041;-77
2023/01/22 09:34:44;;;;;;;29.85;15.57;;;;;;;;;;10424555;28;20051;-76
2023/01/22 09:39:46;;;;;;;29.13;15.65;;;;;;;;;;10431889;28;20069;-78
2023/01/22 09:44:48;;;;;;;33.67;15.85;;;;;;;;;;10418204;28;20032;-73
2023/01/22 09:49:57;;;;;;;24.23;13.93;;;;;;;;;;10416092;28;20029;-76
2023/01/22 09:54:57;;;;;;;28.23;13.88;;;;;;;;;;10447304;28;20572;-73
2023/01/22 09:59:57;;;;;;;37.70;16.95;;;;;;;;;;10435932;28;20108;-77
2023/01/22 10:05:17;;;;;;;34.00;15.73;;;;;;;;;;10441344;28;20049;-75
2023/01/22 10:10:22;;;;;;;33.17;14.48;;;;;;;;;;10423386;28;20037;-77
2023/01/22 10:15:23;;;;;;;18.58;8.90;;;;;;;;;;10434692;28;20021;-72
2023/01/22 10:20:23;;;;;;;18.55;9.35;;;;;;;;;;10432917;28;20017;-76
2023/01/22 10:25:24;;;;;;;19.15;10.80;;;;;;;;;;10428344;28;20021;-75
2023/01/22 10:30:25;;;;;;;23.47;10.50;;;;;;;;;;10429028;28;20021;-80
2023/01/22 10:35:25;;;;;;;17.35;8.70;;;;;;;;;;10434519;28;20044;-79
2023/01/22 10:40:29;;;;;;;21.13;10.10;;;;;;;;;;10418177;28;20031;-72
2023/01/22 10:45:30;;;;;;;15.27;8.40;;;;;;;;;;10455359;28;20013;-76
2023/01/22 10:50:30;;;;;;;13.30;6.30;;;;;;;;;;10421046;28;20034;-78
2023/01/22 10:55:31;;;;;;;16.92;7.50;;;;;;;;;;10409795;28;20106;-74
2023/01/22 11:00:36;;;;;;;18.90;7.78;;;;;;;;;;10416053;28;20114;-75
2023/01/22 11:05:36;;;;;;;12.25;6.10;;;;;;;;;;10426287;28;20461;-78
2023/01/22 11:10:39;;;;;;;12.95;6.72;;;;;;;;;;10421529;28;20562;-76
2023/01/22 11:15:45;;;;;;;30.15;15.30;;;;;;;;;;10412151;28;20029;-75
2023/01/22 11:20:53;;;;;;;26.35;8.80;;;;;;;;;;10396754;28;20029;-73
2023/01/22 11:26:12;;;;;;;13.57;6.45;;;;;;;;;;10418274;28;20021;-77
2023/01/22 11:31:15;;;;;;;10.50;4.18;;;;;;;;;;10430986;28;20438;-70
2023/01/22 11:36:19;;;;;;;6.95;4.30;;;;;;;;;;10418000;28;20021;-74
2023/01/22 11:41:26;;;;;;;10.50;3.20;;;;;;;;;;10415045;28;20036;-73
2023/01/22 11:46:34;;;;;;;6.60;3.45;;;;;;;;;;10440942;28;20471;-77
2023/01/22 11:51:37;;;;;;;5.15;3.85;;;;;;;;;;10421568;28;20106;-78
2023/01/22 11:57:00;;;;;;;8.00;3.22;;;;;;;;;;10424172;28;20016;-76
2023/01/22 12:02:19;;;;;;;6.30;2.20;;;;;;;;;;10442901;28;20025;-77
2023/01/22 12:07:26;;;;;;;2.20;1.73;;;;;;;;;;10434577;28;20516;-74
2023/01/22 12:12:52;;;;;;;8.15;3.00;;;;;;;;;;10412833;28;20036;-74
2023/01/22 12:18:24;;;;;;;4.50;2.40;;;;;;;;;;10408597;28;20052;-77
2023/01/22 12:23:32;;;;;;;5.72;2.63;;;;;;;;;;10419302;28;20159;-76
2023/01/22 12:28:39;;;;;;;5.15;2.33;;;;;;;;;;10414466;28;20345;-77
2023/01/22 12:33:40;;;;;;;6.15;2.55;;;;;;;;;;10436275;28;20017;-73
2023/01/22 12:38:45;;;;;;;4.60;2.42;;;;;;;;;;10411868;28;20484;-71
2023/01/22 12:43:49;;;;;;;6.28;2.85;;;;;;;;;;10419904;28;20021;-72
2023/01/22 12:49:02;;;;;;;6.03;2.83;;;;;;;;;;10423071;28;20040;-74
2023/01/22 12:54:16;;;;;;;5.22;3.25;;;;;;;;;;10422747;28;20024;-77
2023/01/22 12:59:30;;;;;;;4.45;2.30;;;;;;;;;;10420096;28;20114;-80
2023/01/22 13:04:31;;;;;;;6.15;2.80;;;;;;;;;;10426726;28;20037;-76
2023/01/22 13:09:34;;;;;;;5.25;2.75;;;;;;;;;;10405033;28;20040;-75
2023/01/22 13:14:38;;;;;;;15.05;3.58;;;;;;;;;;10412836;28;20021;-77
2023/01/22 13:19:41;;;;;;;6.18;2.75;;;;;;;;;;10436167;28;20028;-74
2023/01/22 13:24:52;;;;;;;4.03;2.45;;;;;;;;;;10419054;28;20021;-80
2023/01/22 13:30:04;;;;;;;4.82;2.58;;;;;;;;;;10420756;28;20021;-75
2023/01/22 13:35:05;;;;;;;2.80;2.05;;;;;;;;;;10405498;28;20091;-74
2023/01/22 13:40:25;;;;;;;4.13;2.65;;;;;;;;;;10423741;28;20048;-78
2023/01/22 13:45:27;;;;;;;5.60;2.60;;;;;;;;;;10419521;28;20108;-77
2023/01/22 13:50:29;;;;;;;3.72;2.55;;;;;;;;;;10429078;28;20032;-80
2023/01/22 13:55:29;;;;;;;5.25;2.63;;;;;;;;;;10429469;28;20029;-73
2023/01/22 14:00:31;;;;;;;3.13;2.38;;;;;;;;;;10428648;28;20021;-76
2023/01/22 14:05:32;;;;;;;5.30;2.70;;;;;;;;;;10428872;28;20080;-76
2023/01/22 14:10:33;;;;;;;4.50;1.98;;;;;;;;;;10441942;28;20025;-79
2023/01/22 14:15:33;;;;;;;5.27;2.60;;;;;;;;;;10429164;28;20036;-78
2023/01/22 14:20:33;;;;;;;6.05;2.78;;;;;;;;;;10424900;28;20025;-73
2023/01/22 14:25:37;;;;;;;3.47;2.53;;;;;;;;;;10415115;28;20019;-77
2023/01/22 14:30:37;;;;;;;5.50;2.80;;;;;;;;;;10432076;28;20026;-76
2023/01/22 14:35:38;;;;;;;4.90;2.67;;;;;;;;;;10413995;28;20550;-75
2023/01/22 14:40:38;;;;;;;6.00;2.58;;;;;;;;;;10425895;28;20391;-77
2023/01/22 14:45:40;;;;;;;9.02;3.53;;;;;;;;;;10442695;28;20029;-73
2023/01/22 14:50:40;;;;;;;4.55;2.45;;;;;;;;;;10427496;28;20043;-73
2023/01/22 14:55:44;;;;;;;4.07;2.80;;;;;;;;;;10425379;28;20028;-73
2023/01/22 15:00:44;;;;;;;4.10;2.55;;;;;;;;;;10431294;28;20032;-77
2023/01/22 15:05:44;;;;;;;5.90;3.22;;;;;;;;;;10421416;28;20049;-75
2023/01/22 15:10:45;;;;;;;13.02;3.78;;;;;;;;;;10428057;28;20032;-80
2023/01/22 15:15:45;;;;;;;8.13;3.00;;;;;;;;;;10419603;28;20045;-77
2023/01/22 15:20:45;;;;;;;5.20;2.60;;;;;;;;;;10419502;28;20060;-74
2023/01/22 15:25:55;;;;;;;7.03;3.00;;;;;;;;;;10423717;28;20028;-75
2023/01/22 15:30:55;;;;;;;8.45;3.20;;;;;;;;;;10423854;28;20037;-73
2023/01/22 15:35:56;;;;;;;10.05;3.75;;;;;;;;;;10443045;28;20032;-76
2023/01/22 15:41:02;;;;;;;5.35;3.17;;;;;;;;;;10442678;28;20120;-76
2023/01/22 15:46:02;;;;;;;7.45;4.20;;;;;;;;;;10423214;28;20529;-77
2023/01/22 15:51:07;;;;;;;7.80;3.97;;;;;;;;;;10437677;28;20037;-78
2023/01/22 15:56:07;;;;;;;5.53;3.40;;;;;;;;;;10423123;28;20039;-71
2023/01/22 16:01:07;;;;;;;7.88;4.60;;;;;;;;;;10444815;28;20510;-76
2023/01/22 16:06:15;;;;;;;9.40;5.82;;;;;;;;;;10423275;28;20045;-73
2023/01/22 16:11:16;;;;;;;11.63;5.47;;;;;;;;;;10435817;28;20468;-76
2023/01/22 16:16:18;;;;;;;9.00;4.82;;;;;;;;;;10424687;28;20035;-80
2023/01/22 16:21:19;;;;;;;18.17;7.50;;;;;;;;;;10439968;28;20262;-75
2023/01/22 16:26:21;;;;;;;15.18;7.55;;;;;;;;;;10421360;28;20025;-75
2023/01/22 16:31:22;;;;;;;15.48;8.45;;;;;;;;;;10416133;28;20029;-73
2023/01/22 16:36:24;;;;;;;13.07;6.88;;;;;;;;;;10434701;28;20094;-72
2023/01/22 16:41:26;;;;;;;13.50;7.82;;;;;;;;;;10439533;28;20033;-76
2023/01/22 16:46:28;;;;;;;13.82;7.47;;;;;;;;;;10437711;28;20024;-77
2023/01/22 16:51:33;;;;;;;11.13;7.15;;;;;;;;;;10420399;28;20613;-79
2023/01/22 16:56:33;;;;;;;17.40;7.90;;;;;;;;;;10417308;28;20032;-78
2023/01/22 17:01:34;;;;;;;15.25;7.35;;;;;;;;;;10420420;28;20513;-74
2023/01/22 17:06:39;;;;;;;12.80;6.57;;;;;;;;;;10428413;28;20049;-77
2023/01/22 17:11:41;;;;;;;13.25;6.63;;;;;;;;;;10444581;28;20025;-76
2023/01/22 17:16:41;;;;;;;19.75;9.40;;;;;;;;;;10418003;28;20116;-77
2023/01/22 17:21:42;;;;;;;16.27;8.95;;;;;;;;;;10427295;28;20029;-76
2023/01/22 17:26:42;;;;;;;20.38;7.90;;;;;;;;;;10440973;28;20139;-70
2023/01/22 17:31:43;;;;;;;24.77;8.30;;;;;;;;;;10444987;28;20112;-75
2023/01/22 17:36:43;;;;;;;14.50;6.53;;;;;;;;;;10445165;28;20036;-78
2023/01/22 17:41:43;;;;;;;24.35;12.25;;;;;;;;;;10428210;28;20494;-77
2023/01/22 17:46:44;;;;;;;14.90;8.13;;;;;;;;;;10427497;28;20056;-70
2023/01/22 17:51:44;;;;;;;15.53;8.17;;;;;;;;;;10426956;28;20267;-78
2023/01/22 17:56:47;;;;;;;93.00;35.47;;;;;;;;;;10423384;28;20040;-75
2023/01/22 18:01:47;;;;;;;59.05;22.27;;;;;;;;;;10423949;28;20067;-75
2023/01/22 18:06:48;;;;;;;23.05;10.18;;;;;;;;;;10419097;28;20677;-79
2023/01/22 18:11:49;;;;;;;481.63;151.65;;;;;;;;;;10446032;28;20067;-78
2023/01/22 18:16:49;;;;;;;632.97;194.70;;;;;;;;;;10426389;28;20143;-73
2023/01/22 18:21:50;;;;;;;273.08;87.05;;;;;;;;;;10430625;28;20342;-76
2023/01/22 18:26:50;;;;;;;226.35;74.90;;;;;;;;;;10427981;28;20021;-78
2023/01/22 18:31:51;;;;;;;15.13;8.55;;;;;;;;;;10419120;28;20538;-77
2023/01/22 18:36:51;;;;;;;12.52;6.55;;;;;;;;;;10439242;28;20037;-76
2023/01/22 18:41:51;;;;;;;11.57;6.47;;;;;;;;;;10418782;28;20056;-75
2023/01/22 18:46:54;;;;;;;10.02;5.05;;;;;;;;;;10436950;28;20713;-75
2023/01/22 18:51:59;;;;;;;10.35;6.07;;;;;;;;;;10426408;28;20088;-78
2023/01/22 18:56:59;;;;;;;7.20;4.25;;;;;;;;;;10424323;28;20075;-76
2023/01/22 19:02:00;;;;;;;11.20;6.35;;;;;;;;;;10422101;28;20033;-74
2023/01/22 19:07:00;;;;;;;8.85;5.00;;;;;;;;;;10432715;28;20056;-74
2023/01/22 19:12:00;;;;;;;9.60;5.13;;;;;;;;;;10421770;28;20043;-71
2023/01/22 19:17:02;;;;;;;8.77;5.22;;;;;;;;;;10426289;28;20040;-73
2023/01/22 19:22:03;;;;;;;11.98;4.88;;;;;;;;;;10435934;28;20414;-78
2023/01/22 19:27:03;;;;;;;7.93;4.70;;;;;;;;;;10420881;28;20027;-77
2023/01/22 19:32:03;;;;;;;9.55;5.28;;;;;;;;;;10423996;28;20502;-76
2023/01/22 19:37:05;;;;;;;12.50;6.20;;;;;;;;;;10396448;28;20047;-73
2023/01/22 19:42:05;;;;;;;8.20;4.57;;;;;;;;;;10421119;28;20525;-77
2023/01/22 19:47:07;;;;;;;7.47;4.15;;;;;;;;;;10423974;28;20039;-78
2023/01/22 19:52:08;;;;;;;7.90;4.82;;;;;;;;;;10413651;28;20021;-81
2023/01/22 19:57:10;;;;;;;9.35;5.43;;;;;;;;;;10441031;28;20035;-79
2023/01/22 20:02:13;;;;;;;10.40;5.50;;;;;;;;;;10436296;28;20359;-74
2023/01/22 20:07:13;;;;;;;11.90;5.20;;;;;;;;;;10418512;28;20107;-74
2023/01/22 20:12:14;;;;;;;7.18;4.40;;;;;;;;;;10416070;28;20108;-74
2023/01/22 20:17:15;;;;;;;6.10;4.18;;;;;;;;;;10407301;28;20029;-71
2023/01/22 20:22:15;;;;;;;8.00;4.97;;;;;;;;;;10400691;28;20037;-71
2023/01/22 20:27:16;;;;;;;10.53;5.07;;;;;;;;;;10417600;28;20082;-76
2023/01/22 20:32:16;;;;;;;12.43;5.05;;;;;;;;;;10405836;28;20039;-70
2023/01/22 20:37:16;;;;;;;14.23;6.07;;;;;;;;;;10419452;28;20029;-72
2023/01/22 20:42:16;;;;;;;10.50;6.03;;;;;;;;;;10427102;28;20021;-73
2023/01/22 20:47:17;;;;;;;14.98;7.30;;;;;;;;;;10434016;28;20074;-71
2023/01/22 20:52:18;;;;;;;13.05;6.68;;;;;;;;;;10446329;28;20033;-72
2023/01/22 20:57:19;;;;;;;12.63;5.53;;;;;;;;;;10446193;28;20028;-75
2023/01/22 21:02:19;;;;;;;8.40;5.33;;;;;;;;;;10442449;28;20056;-73
2023/01/22 21:07:19;;;;;;;11.13;6.60;;;;;;;;;;10443733;28;20028;-77
2023/01/22 21:12:20;;;;;;;8.07;5.57;;;;;;;;;;10437500;28;20737;-76
2023/01/22 21:17:20;;;;;;;11.03;5.80;;;;;;;;;;10414552;28;20502;-76
2023/01/22 21:22:20;;;;;;;9.15;6.15;;;;;;;;;;10400560;28;20028;-74
2023/01/22 21:27:21;;;;;;;11.33;6.07;;;;;;;;;;10421527;28;20025;-78
2023/01/22 21:32:21;;;;;;;11.57;5.90;;;;;;;;;;10426098;28;20020;-75
2023/01/22 21:37:21;;;;;;;9.25;5.57;;;;;;;;;;10429274;28;20584;-79
2023/01/22 21:47:40;;;;;;;15.15;7.72;;;;;;;;;;10422207;28;20013;-76
2023/01/22 21:52:41;;;;;;;8.40;6.25;;;;;;;;;;10401116;28;20033;-78
2023/01/22 21:57:43;;;;;;;13.70;6.75;;;;;;;;;;10406897;28;20029;-72
2023/01/22 22:02:44;;;;;;;16.58;6.60;;;;;;;;;;10420541;28;20052;-79
2023/01/22 22:07:44;;;;;;;10.48;5.75;;;;;;;;;;10412480;28;20411;-77
2023/01/22 22:12:44;;;;;;;10.88;6.47;;;;;;;;;;10407039;28;20028;-76
2023/01/22 22:17:45;;;;;;;13.68;6.28;;;;;;;;;;10404596;28;20029;-77
2023/01/22 22:22:45;;;;;;;13.25;7.70;;;;;;;;;;10414811;28;20056;-75
2023/01/22 22:27:46;;;;;;;19.08;8.90;;;;;;;;;;10419474;28;20036;-73
2023/01/22 22:32:46;;;;;;;14.90;7.55;;;;;;;;;;10427950;28;20117;-77
2023/01/22 22:37:46;;;;;;;14.02;7.38;;;;;;;;;;10426080;28;20032;-76
2023/01/22 22:42:46;;;;;;;14.60;6.55;;;;;;;;;;10386705;28;20116;-75
2023/01/22 22:47:47;;;;;;;10.02;5.57;;;;;;;;;;10406090;28;20024;-77
2023/01/22 22:52:47;;;;;;;13.02;5.10;;;;;;;;;;10427608;28;20032;-75
2023/01/22 22:57:47;;;;;;;14.43;4.72;;;;;;;;;;10428267;28;20032;-76
2023/01/22 23:02:48;;;;;;;9.30;5.50;;;;;;;;;;10427717;28;20041;-74
2023/01/22 23:07:48;;;;;;;9.02;5.60;;;;;;;;;;10410819;28;20044;-75
2023/01/22 23:12:48;;;;;;;14.55;5.13;;;;;;;;;;10426470;28;20481;-76
2023/01/22 23:17:48;;;;;;;8.50;4.47;;;;;;;;;;10427073;28;20127;-78
2023/01/22 23:22:52;;;;;;;15.43;6.10;;;;;;;;;;10427266;28;20118;-78
2023/01/22 23:27:54;;;;;;;12.15;5.10;;;;;;;;;;10426940;28;20025;-78
2023/01/22 23:32:54;;;;;;;9.07;4.82;;;;;;;;;;10426177;28;20491;-79
2023/01/22 23:37:54;;;;;;;7.95;4.70;;;;;;;;;;10426175;28;20025;-80
2023/01/22 23:42:55;;;;;;;7.70;4.07;;;;;;;;;;10426842;28;20119;-80
2023/01/22 23:47:55;;;;;;;10.02;4.80;;;;;;;;;;10425877;28;20087;-79
2023/01/22 23:52:55;;;;;;;9.63;4.70;;;;;;;;;;10412194;28;20115;-75
2023/01/22 23:57:56;;;;;;;9.90;5.22;;;;;;;;;;10422662;28;20307;-72
